Time;durP1;ratioP1;P1;durP2;ratioP2;P2;SDS_P1;SDS_P2;PMS_P1;PMS_P2;Temp;Humidity;BMP_temperature;BMP_pressure;BME280_temperature;BME280_humidity;BME280_pressure;Samples;Min_cycle;Max_cycle;Signal;HPM_P1;HPM_P2
2021/03/01 00:00:41;;;;;;;201.23;24.58;;;3.00;99.90;;;;;;5067369;28;20446;-73
2021/03/01 00:03:07;;;;;;;137.70;18.30;;;3.00;99.90;;;;;;5060206;28;20380;-73
2021/03/01 00:05:33;;;;;;;;;;;3.00;99.90;;;;;;5061629;28;20081;-73
2021/03/01 00:07:59;;;;;;;187.45;20.83;;;3.00;99.90;;;;;;5064710;28;19943;-72
2021/03/01 00:10:25;;;;;;;81.05;10.75;;;3.00;99.90;;;;;;5064970;28;20513;-72
2021/03/01 00:12:51;;;;;;;224.60;20.27;;;3.00;99.90;;;;;;5082902;28;20373;-74
2021/03/01 00:15:19;;;;;;;181.25;16.95;;;3.00;99.90;;;;;;5064304;28;20481;-74
2021/03/01 00:17:46;;;;;;;146.30;16.50;;;3.00;99.90;;;;;;5078008;28;20051;-73
2021/03/01 00:20:12;;;;;;;;;;;2.90;99.90;;;;;;5063569;28;20044;-73
2021/03/01 00:22:40;;;;;;;152.35;14.57;;;2.90;99.90;;;;;;5069459;28;20014;-73
2021/03/01 00:25:07;;;;;;;176.57;17.02;;;2.90;99.90;;;;;;5087018;28;20047;-73
2021/03/01 00:27:33;;;;;;;161.75;17.65;;;2.90;99.90;;;;;;5082698;28;20028;-71
2021/03/01 00:29:59;;;;;;;191.98;18.25;;;2.80;99.90;;;;;;5072245;28;20106;-71
2021/03/01 00:32:25;;;;;;;120.03;11.90;;;2.90;99.90;;;;;;5067948;28;20040;-74
2021/03/01 00:34:51;;;;;;;201.80;17.08;;;2.90;99.90;;;;;;5054512;28;20045;-72
2021/03/01 00:37:17;;;;;;;134.13;14.88;;;2.80;99.90;;;;;;5064518;28;20024;-74
2021/03/01 00:39:43;;;;;;;91.20;10.98;;;2.80;99.90;;;;;;5068361;28;20045;-73
2021/03/01 00:42:09;;;;;;;143.20;14.57;;;2.80;99.90;;;;;;5069220;28;20035;-73
2021/03/01 00:44:35;;;;;;;96.68;11.73;;;2.80;99.90;;;;;;5071310;28;20102;-74
2021/03/01 00:47:00;;;;;;;201.75;22.30;;;2.80;99.90;;;;;;5065548;28;20036;-74
2021/03/01 00:49:27;;;;;;;;;;;2.80;99.90;;;;;;5076893;28;20060;-75
2021/03/01 00:51:52;;;;;;;191.82;19.83;;;2.70;99.90;;;;;;5062404;28;20386;-75
2021/03/01 00:54:18;;;;;;;156.07;16.80;;;2.20;99.90;;;;;;5068010;28;20043;-70
2021/03/01 00:56:44;;;;;;;207.05;21.27;;;2.60;99.90;;;;;;5062373;28;20048;-72
2021/03/01 00:59:10;;;;;;;127.88;14.90;;;2.60;99.90;;;;;;5071185;28;20033;-74
2021/03/01 01:01:35;;;;;;;101.03;12.98;;;2.50;99.90;;;;;;5062804;28;20041;-72
2021/03/01 01:04:01;;;;;;;209.30;20.15;;;2.50;99.90;;;;;;5062372;28;20072;-75
2021/03/01 01:06:27;;;;;;;153.23;18.05;;;2.60;99.90;;;;;;5053625;28;20036;-71
2021/03/01 01:08:53;;;;;;;210.88;21.38;;;2.50;99.90;;;;;;5060256;28;20036;-73
2021/03/01 01:11:18;;;;;;;220.85;22.05;;;2.50;99.90;;;;;;5062322;28;20041;-74
2021/03/01 01:13:44;;;;;;;184.13;19.48;;;2.60;99.90;;;;;;5066215;28;20047;-72
2021/03/01 01:16:10;;;;;;;110.07;13.75;;;2.60;99.90;;;;;;5064829;28;20081;-71
2021/03/01 01:18:37;;;;;;;205.35;24.33;;;2.60;99.90;;;;;;5064454;28;20103;-73
2021/03/01 01:21:03;;;;;;;194.18;21.55;;;2.60;99.90;;;;;;5064555;28;20048;-73
2021/03/01 01:23:29;;;;;;;190.98;19.00;;;2.60;99.90;;;;;;5060681;28;20052;-72
2021/03/01 01:25:55;;;;;;;160.60;18.02;;;2.60;99.90;;;;;;5066802;28;20040;-73
2021/03/01 01:28:21;;;;;;;122.97;16.30;;;2.70;99.90;;;;;;5066189;28;20033;-72
2021/03/01 01:30:47;;;;;;;217.32;21.10;;;2.60;99.90;;;;;;5067003;28;20032;-71
2021/03/01 01:33:12;;;;;;;246.40;23.52;;;2.70;99.90;;;;;;5055122;28;20488;-74
2021/03/01 01:35:39;;;;;;;253.18;25.35;;;2.60;99.90;;;;;;5059535;28;20045;-72
2021/03/01 01:38:05;;;;;;;266.38;27.10;;;2.50;99.90;;;;;;5065659;28;20060;-74
2021/03/01 01:40:31;;;;;;;205.88;19.25;;;2.40;99.90;;;;;;5067942;28;20032;-74
2021/03/01 01:42:57;;;;;;;162.68;19.90;;;2.40;99.90;;;;;;5062906;28;20223;-72
2021/03/01 01:45:25;;;;;;;116.85;15.18;;;2.30;99.90;;;;;;5052037;28;20219;-75
2021/03/01 01:47:51;;;;;;;212.82;25.40;;;2.30;99.90;;;;;;5067172;28;20071;-75
2021/03/01 01:50:19;;;;;;;162.45;20.55;;;2.30;99.90;;;;;;5061735;28;20043;-72
2021/03/01 01:52:47;;;;;;;169.88;20.02;;;2.30;99.90;;;;;;5061793;28;20032;-74
2021/03/01 01:55:14;;;;;;;147.88;18.42;;;2.30;99.90;;;;;;5064786;28;20036;-75
2021/03/01 01:57:41;;;;;;;111.65;14.60;;;2.30;99.90;;;;;;5073498;28;20105;-74
2021/03/01 02:03:08;;;;;;;148.23;19.27;;;2.30;99.90;;;;;;5067499;28;20120;-72
2021/03/01 02:05:37;;;;;;;198.23;25.60;;;2.40;99.90;;;;;;5065655;28;20041;-75
2021/03/01 02:08:13;;;;;;;108.20;16.00;;;2.40;99.90;;;;;;5065325;28;20064;-73
2021/03/01 02:11:10;;;;;;;145.75;20.88;;;2.40;99.90;;;;;;5077584;28;20252;-74
2021/03/01 02:13:45;;;;;;;161.70;22.85;;;2.40;99.90;;;;;;5034804;28;20083;-74
2021/03/01 02:16:23;;;;;;;154.98;23.75;;;2.40;99.90;;;;;;5061807;28;20055;-71
2021/03/01 02:18:49;;;;;;;122.15;15.98;;;2.40;99.90;;;;;;5065829;28;20072;-74
2021/03/01 02:21:15;;;;;;;124.22;17.00;;;2.40;99.90;;;;;;5062762;28;20499;-74
2021/03/01 02:23:42;;;;;;;191.88;22.02;;;2.40;99.90;;;;;;5067870;28;20037;-73
2021/03/01 02:26:16;;;;;;;147.35;16.13;;;2.40;99.90;;;;;;5059998;28;20041;-74
2021/03/01 02:28:59;;;;;;;201.95;19.58;;;2.50;99.90;;;;;;5083632;28;20036;-74
2021/03/01 02:31:26;;;;;;;165.35;19.38;;;2.50;99.90;;;;;;5061919;28;20037;-72
2021/03/01 02:33:59;;;;;;;182.18;17.85;;;2.50;99.90;;;;;;5063434;28;20059;-75
2021/03/01 02:36:47;;;;;;;116.43;14.13;;;2.50;99.90;;;;;;5069332;28;20040;-71
2021/03/01 02:39:16;;;;;;;286.85;30.92;;;2.50;99.90;;;;;;5084496;28;20037;-71
2021/03/01 02:41:43;;;;;;;312.75;27.42;;;2.50;99.90;;;;;;5082172;28;20079;-73
2021/03/01 02:44:09;;;;;;;146.77;15.23;;;2.50;99.90;;;;;;5059846;28;20052;-75
2021/03/01 02:46:36;;;;;;;178.00;18.73;;;2.50;99.90;;;;;;5079762;28;20033;-70
2021/03/01 02:49:06;;;;;;;188.45;18.02;;;2.50;99.90;;;;;;5066205;28;20045;-73
2021/03/01 02:51:34;;;;;;;165.95;16.73;;;2.40;99.90;;;;;;5061925;28;20039;-73
2021/03/01 02:54:02;;;;;;;142.82;16.75;;;2.40;99.90;;;;;;5059670;28;20478;-73
2021/03/01 02:56:28;;;;;;;184.10;21.70;;;2.40;99.90;;;;;;5063189;28;20488;-73
2021/03/01 02:58:55;;;;;;;175.38;23.00;;;2.40;99.90;;;;;;5060600;28;20040;-75
2021/03/01 03:01:21;;;;;;;241.65;24.35;;;2.40;99.90;;;;;;5060858;28;20482;-76
2021/03/01 03:03:49;;;;;;;210.82;21.65;;;2.40;99.90;;;;;;5065491;28;20090;-73
2021/03/01 03:06:21;;;;;;;103.93;14.95;;;2.40;99.90;;;;;;5050751;28;20056;-74
2021/03/01 03:08:49;;;;;;;125.43;15.93;;;2.40;99.90;;;;;;5065806;28;20421;-73
2021/03/01 03:11:18;;;;;;;145.32;16.55;;;2.40;99.90;;;;;;5057846;28;20055;-72
2021/03/01 03:13:49;;;;;;;106.57;14.32;;;2.40;99.90;;;;;;5065118;28;20086;-71
2021/03/01 03:16:16;;;;;;;112.10;14.68;;;2.30;99.90;;;;;;5066265;28;20611;-70
2021/03/01 03:18:44;;;;;;;124.70;16.17;;;2.30;99.90;;;;;;5054586;28;20061;-75
2021/03/01 03:21:11;;;;;;;98.45;13.52;;;2.30;99.90;;;;;;5083519;28;20105;-74
2021/03/01 03:23:37;;;;;;;138.60;15.23;;;2.20;99.90;;;;;;5066414;28;20036;-70
2021/03/01 03:26:03;;;;;;;137.27;18.00;;;2.30;99.90;;;;;;5065417;28;20047;-74
2021/03/01 03:28:29;;;;;;;126.53;15.30;;;2.30;99.90;;;;;;5048758;28;20120;-71
2021/03/01 03:30:54;;;;;;;202.52;21.50;;;2.20;99.90;;;;;;5066230;28;20064;-72
2021/03/01 03:33:20;;;;;;;117.40;14.70;;;2.20;99.90;;;;;;5082984;28;20036;-71
2021/03/01 03:35:46;;;;;;;126.80;15.05;;;2.20;99.90;;;;;;5067419;28;20173;-73
2021/03/01 03:38:29;;;;;;;159.48;18.98;;;2.20;99.90;;;;;;5057368;28;20037;-73
2021/03/01 03:40:59;;;;;;;93.35;14.13;;;2.20;99.90;;;;;;5062157;28;20066;-74
2021/03/01 03:43:27;;;;;;;123.88;16.75;;;2.20;99.90;;;;;;5077776;28;20044;-72
2021/03/01 03:45:55;;;;;;;128.02;16.25;;;2.20;99.90;;;;;;5068896;28;20029;-72
2021/03/01 03:48:23;;;;;;;115.10;14.65;;;2.20;99.90;;;;;;5069232;28;20037;-75
2021/03/01 03:50:58;;;;;;;53.03;11.18;;;2.20;99.90;;;;;;5058807;28;20105;-72
2021/03/01 03:53:27;;;;;;;58.97;12.07;;;2.20;99.90;;;;;;5086360;28;20086;-70
2021/03/01 03:55:55;;;;;;;43.88;9.98;;;2.20;99.90;;;;;;5064020;28;20482;-75
2021/03/01 03:58:25;;;;;;;133.63;16.13;;;2.20;99.90;;;;;;5072339;28;20041;-74
2021/03/01 04:00:53;;;;;;;71.20;11.65;;;2.30;99.90;;;;;;5080855;28;20052;-71
2021/03/01 04:03:22;;;;;;;83.53;13.55;;;2.20;99.90;;;;;;5063406;28;20063;-73
2021/03/01 04:05:51;;;;;;;88.05;12.23;;;2.20;99.90;;;;;;5067563;28;20040;-74
2021/03/01 04:08:18;;;;;;;143.85;17.50;;;2.20;99.90;;;;;;5070659;28;20056;-75
2021/03/01 04:10:47;;;;;;;66.00;11.05;;;2.20;99.90;;;;;;5083549;28;20466;-72
2021/03/01 04:13:14;;;;;;;103.80;15.50;;;2.20;99.90;;;;;;5062643;28;20037;-72
2021/03/01 04:15:48;;;;;;;117.57;16.85;;;2.20;99.90;;;;;;5070785;28;20082;-74
2021/03/01 04:18:19;;;;;;;84.97;14.32;;;2.30;99.90;;;;;;5087059;28;20049;-73
2021/03/01 04:20:46;;;;;;;74.00;12.60;;;2.30;99.90;;;;;;5079596;28;20041;-70
2021/03/01 04:23:15;;;;;;;83.57;13.35;;;2.30;99.90;;;;;;5070591;28;20072;-74
2021/03/01 04:25:43;;;;;;;50.08;8.90;;;2.30;99.90;;;;;;5063620;28;20037;-71
2021/03/01 04:28:10;;;;;;;18.10;7.38;;;2.20;99.90;;;;;;5070963;28;20036;-72
2021/03/01 04:30:37;;;;;;;21.83;7.55;;;2.20;99.90;;;;;;5066258;28;20041;-71
2021/03/01 04:33:03;;;;;;;28.45;8.95;;;2.20;99.90;;;;;;5070802;28;20055;-71
2021/03/01 04:35:30;;;;;;;28.52;7.88;;;2.10;99.90;;;;;;5063598;28;20369;-70
2021/03/01 04:37:56;;;;;;;22.63;7.10;;;2.10;99.90;;;;;;5065306;28;20044;-71
2021/03/01 04:40:22;;;;;;;18.58;6.43;;;2.10;99.90;;;;;;5075982;28;20033;-74
2021/03/01 04:42:49;;;;;;;17.08;6.65;;;2.10;99.90;;;;;;5064540;28;20045;-73
2021/03/01 04:45:17;;;;;;;15.60;7.22;;;2.10;99.90;;;;;;5068928;28;20451;-72
2021/03/01 04:47:47;;;;;;;11.02;5.53;;;2.10;99.90;;;;;;5057041;28;20104;-72
2021/03/01 04:50:16;;;;;;;8.63;5.65;;;2.10;99.90;;;;;;5057395;28;20041;-75
2021/03/01 04:52:46;;;;;;;8.18;4.65;;;2.10;99.90;;;;;;5067966;28;20064;-74
2021/03/01 04:55:13;;;;;;;7.70;4.95;;;2.10;99.90;;;;;;5061241;28;20076;-74
2021/03/01 04:57:40;;;;;;;9.23;5.05;;;2.10;99.90;;;;;;5068298;28;20440;-71
2021/03/01 05:00:11;;;;;;;10.20;6.15;;;2.00;99.90;;;;;;5067048;28;20055;-74
2021/03/01 05:02:38;;;;;;;9.38;5.18;;;2.10;99.90;;;;;;5061308;28;20047;-72
2021/03/01 05:05:05;;;;;;;12.00;6.28;;;2.00;99.90;;;;;;5065231;28;20559;-72
2021/03/01 05:07:32;;;;;;;9.60;5.75;;;2.00;99.90;;;;;;5066215;28;20482;-71
2021/03/01 05:09:59;;;;;;;8.00;5.45;;;2.10;99.90;;;;;;5065471;28;20048;-74
2021/03/01 05:12:24;;;;;;;8.40;5.22;;;2.10;99.90;;;;;;5064657;28;20033;-72
2021/03/01 05:14:51;;;;;;;9.35;5.55;;;2.10;99.90;;;;;;5063174;28;20505;-75
2021/03/01 05:17:17;;;;;;;10.57;6.03;;;2.10;99.90;;;;;;5059886;28;20052;-74
2021/03/01 05:19:42;;;;;;;8.52;5.05;;;2.20;99.90;;;;;;5069891;28;20048;-74
2021/03/01 05:22:08;;;;;;;10.00;5.88;;;2.20;99.90;;;;;;5069478;28;20112;-71
2021/03/01 05:24:34;;;;;;;9.82;5.55;;;2.20;99.90;;;;;;5066954;28;20044;-73
2021/03/01 05:27:00;;;;;;;10.82;5.97;;;2.30;99.90;;;;;;5064113;28;20411;-73
2021/03/01 05:29:27;;;;;;;9.57;4.85;;;2.30;99.90;;;;;;5067726;28;20040;-71
2021/03/01 05:31:53;;;;;;;9.05;5.13;;;2.30;99.90;;;;;;5060828;28;20035;-70
2021/03/01 05:34:19;;;;;;;8.65;5.72;;;2.40;99.90;;;;;;5065363;28;20028;-74
2021/03/01 05:36:44;;;;;;;11.98;7.13;;;2.40;99.90;;;;;;5068085;28;20049;-71
2021/03/01 05:39:10;;;;;;;11.68;6.15;;;2.40;99.90;;;;;;5057785;28;20033;-73
2021/03/01 05:41:39;;;;;;;14.48;6.70;;;2.40;99.90;;;;;;5067873;28;20124;-74
2021/03/01 05:44:07;;;;;;;10.90;5.90;;;2.50;99.90;;;;;;5058690;28;20052;-73
2021/03/01 05:46:34;;;;;;;13.75;6.50;;;2.50;99.90;;;;;;5081592;28;20040;-72
2021/03/01 05:49:01;;;;;;;13.77;7.32;;;2.50;99.90;;;;;;5064930;28;20500;-75
2021/03/01 05:51:29;;;;;;;11.13;6.28;;;2.50;99.90;;;;;;5066084;28;20044;-71
2021/03/01 05:54:00;;;;;;;19.10;8.35;;;2.60;99.90;;;;;;5069409;28;20041;-74
2021/03/01 05:56:27;;;;;;;15.43;7.85;;;2.60;99.90;;;;;;5067173;28;20028;-74
2021/03/01 05:58:54;;;;;;;16.10;7.93;;;2.60;99.90;;;;;;5064567;28;20098;-75
2021/03/01 06:01:23;;;;;;;21.85;8.65;;;2.60;99.90;;;;;;5060196;28;20063;-73
2021/03/01 06:03:50;;;;;;;21.95;9.35;;;2.70;99.90;;;;;;5069350;28;20105;-71
2021/03/01 06:06:16;;;;;;;19.55;9.52;;;2.70;99.90;;;;;;5062168;28;20040;-75
2021/03/01 06:08:41;;;;;;;19.23;8.70;;;2.70;99.90;;;;;;5059700;28;20087;-74
2021/03/01 06:11:08;;;;;;;23.25;10.57;;;2.70;99.90;;;;;;5053151;28;20071;-71
2021/03/01 06:13:35;;;;;;;25.55;11.40;;;2.80;99.90;;;;;;5067361;28;20041;-74
2021/03/01 06:16:03;;;;;;;31.10;10.23;;;2.80;99.90;;;;;;5066578;28;20385;-73
2021/03/01 06:18:29;;;;;;;27.42;10.00;;;2.80;99.90;;;;;;5060501;28;20045;-74
2021/03/01 06:21:09;;;;;;;30.50;10.43;;;2.90;99.90;;;;;;5060300;28;20093;-71
2021/03/01 06:23:37;;;;;;;30.52;11.35;;;3.00;99.90;;;;;;5059210;28;20627;-71
2021/03/01 06:26:29;;;;;;;29.13;11.13;;;3.00;99.90;;;;;;5062615;28;20043;-73
2021/03/01 06:29:05;;;;;;;35.33;12.75;;;3.00;99.90;;;;;;5057546;28;20055;-75
2021/03/01 06:31:41;;;;;;;31.85;12.02;;;3.10;99.90;;;;;;5067213;28;20371;-76
2021/03/01 06:34:24;;;;;;;43.58;13.68;;;3.10;99.90;;;;;;5068970;28;20037;-72
2021/03/01 06:37:08;;;;;;;31.10;11.85;;;3.20;99.90;;;;;;5067719;28;20515;-76
2021/03/01 06:39:35;;;;;;;23.33;10.38;;;3.20;99.90;;;;;;5066021;28;20039;-74
2021/03/01 06:42:18;;;;;;;28.42;11.82;;;3.30;99.90;;;;;;5073852;28;20105;-73
2021/03/01 06:44:57;;;;;;;25.40;9.70;;;3.30;99.90;;;;;;5056071;28;20036;-72
2021/03/01 06:47:44;;;;;;;26.85;10.35;;;3.40;99.90;;;;;;5055073;28;20259;-73
2021/03/01 06:50:31;;;;;;;31.67;11.43;;;3.50;99.90;;;;;;5056263;28;20072;-76
2021/03/01 06:53:01;;;;;;;27.60;9.88;;;3.50;99.90;;;;;;5063738;28;20052;-73
2021/03/01 06:55:28;;;;;;;33.00;10.30;;;3.60;99.90;;;;;;5058479;28;20048;-73
2021/03/01 06:57:54;;;;;;;29.70;8.98;;;3.60;99.90;;;;;;5069346;28;20045;-75
2021/03/01 07:00:27;;;;;;;35.65;11.10;;;4.40;99.90;;;;;;5068681;28;20063;-73
2021/03/01 07:02:54;;;;;;;42.92;10.52;;;3.70;99.90;;;;;;5062518;28;20049;-74
2021/03/01 07:05:22;;;;;;;42.53;9.98;;;3.80;99.90;;;;;;5070146;28;20050;-72
2021/03/01 07:07:48;;;;;;;29.23;7.88;;;3.80;99.90;;;;;;5068862;28;20083;-74
2021/03/01 07:10:14;;;;;;;43.55;10.82;;;3.80;99.90;;;;;;5055706;28;20132;-73
2021/03/01 07:12:42;;;;;;;29.30;9.60;;;3.80;99.90;;;;;;5063295;28;20090;-74
2021/03/01 07:15:10;;;;;;;86.85;12.68;;;3.90;99.90;;;;;;5054274;28;20048;-74
2021/03/01 07:17:44;;;;;;;69.65;12.57;;;3.90;99.90;;;;;;5069035;28;20052;-72
2021/03/01 07:20:15;;;;;;;86.63;12.95;;;3.90;99.90;;;;;;5055766;28;20092;-72
2021/03/01 07:22:44;;;;;;;76.38;12.23;;;4.00;99.90;;;;;;5060762;28;20063;-72
2021/03/01 07:25:13;;;;;;;56.80;11.95;;;4.00;99.90;;;;;;5054007;28;20481;-73
2021/03/01 07:27:41;;;;;;;62.92;11.43;;;4.00;99.90;;;;;;5062319;28;20056;-71
2021/03/01 07:30:10;;;;;;;53.80;10.45;;;4.00;99.90;;;;;;5060826;28;20037;-72
2021/03/01 07:32:38;;;;;;;63.90;13.70;;;4.10;99.90;;;;;;5062542;28;20047;-72
2021/03/01 07:35:09;;;;;;;66.18;13.93;;;4.10;99.90;;;;;;5069218;28;20044;-73
2021/03/01 07:37:36;;;;;;;77.05;16.55;;;4.20;99.90;;;;;;5066223;28;20086;-72
2021/03/01 07:40:05;;;;;;;78.80;14.40;;;4.20;99.90;;;;;;5079677;28;20041;-75
2021/03/01 07:42:33;;;;;;;53.65;12.00;;;4.30;99.90;;;;;;5064984;28;20040;-72
2021/03/01 07:45:00;;;;;;;79.70;15.18;;;4.30;99.90;;;;;;5055587;28;20037;-73
2021/03/01 07:47:27;;;;;;;;;;;4.30;99.90;;;;;;5063275;28;20063;-73
2021/03/01 07:49:53;;;;;;;;;;;4.30;99.90;;;;;;5056696;28;19948;-71
2021/03/01 07:52:18;;;;;;;85.47;16.98;;;4.40;99.90;;;;;;5063503;28;20389;-72
2021/03/01 07:55:05;;;;;;;43.70;10.85;;;4.40;99.90;;;;;;5067766;28;20119;-71
2021/03/01 07:57:32;;;;;;;41.05;11.45;;;4.40;99.90;;;;;;5064120;28;20032;-74
2021/03/01 08:00:19;;;;;;;82.38;16.50;;;4.50;99.90;;;;;;5059506;28;20044;-73
2021/03/01 08:02:45;;;;;;;67.40;15.40;;;4.50;99.90;;;;;;5080958;28;20057;-75
2021/03/01 08:05:26;;;;;;;92.47;17.75;;;4.60;99.90;;;;;;5068086;28;20460;-75
2021/03/01 08:07:52;;;;;;;69.25;14.77;;;4.60;99.90;;;;;;5061582;28;20040;-76
2021/03/01 08:10:27;;;;;;;102.15;20.92;;;4.70;99.90;;;;;;5082742;28;20060;-74
2021/03/01 08:13:04;;;;;;;144.73;26.40;;;4.70;99.90;;;;;;5067464;28;20397;-72
2021/03/01 08:15:42;;;;;;;124.63;25.70;;;4.70;99.90;;;;;;5062513;28;20041;-72
2021/03/01 08:18:11;;;;;;;74.50;18.85;;;4.80;99.90;;;;;;5063834;28;20055;-74
2021/03/01 08:20:42;;;;;;;71.93;19.75;;;4.80;99.90;;;;;;5063383;28;20072;-71
2021/03/01 08:23:09;;;;;;;101.80;23.73;;;4.80;99.90;;;;;;5055922;28;20428;-72
2021/03/01 08:25:54;;;;;;;55.72;18.08;;;4.90;99.90;;;;;;5061943;28;20137;-76
2021/03/01 08:28:22;;;;;;;49.78;17.67;;;4.90;99.90;;;;;;5068498;28;20032;-75
2021/03/01 08:30:56;;;;;;;56.70;18.55;;;5.00;99.90;;;;;;5065895;28;20040;-77
2021/03/01 08:33:26;;;;;;;49.10;17.35;;;5.00;99.90;;;;;;5067716;28;20150;-77
2021/03/01 08:36:13;;;;;;;63.88;17.55;;;5.10;99.90;;;;;;5062386;28;20040;-77
2021/03/01 08:38:53;;;;;;;82.80;21.67;;;5.30;99.90;;;;;;5071251;28;20527;-73
2021/03/01 08:41:31;;;;;;;119.85;23.77;;;5.20;99.90;;;;;;5066996;28;20036;-74
2021/03/01 08:43:59;;;;;;;79.32;16.60;;;5.20;99.90;;;;;;5060280;28;20055;-74
2021/03/01 08:46:25;;;;;;;59.80;15.77;;;5.20;99.90;;;;;;5062941;28;20036;-74
2021/03/01 08:48:53;;;;;;;57.50;15.32;;;5.60;99.90;;;;;;5077952;28;20504;-74
2021/03/01 08:51:20;;;;;;;45.13;13.02;;;5.30;99.90;;;;;;5059960;28;20067;-74
2021/03/01 08:53:47;;;;;;;49.13;15.07;;;5.30;99.90;;;;;;5066858;28;20036;-73
2021/03/01 08:56:24;;;;;;;38.95;11.23;;;5.40;99.90;;;;;;5064008;28;20430;-74
2021/03/01 08:58:50;;;;;;;66.57;15.02;;;5.40;99.90;;;;;;5067237;28;20059;-75
2021/03/01 09:01:17;;;;;;;;;;;5.50;99.90;;;;;;5066513;28;20207;-73
2021/03/01 09:03:44;;;;;;;44.42;11.45;;;5.50;99.90;;;;;;5081872;28;20333;-73
2021/03/01 09:06:11;;;;;;;39.83;11.52;;;5.50;99.90;;;;;;5066571;28;20032;-73
2021/03/01 09:08:39;;;;;;;23.15;8.23;;;5.50;99.90;;;;;;5067636;28;20466;-74
2021/03/01 09:11:13;;;;;;;17.17;6.40;;;5.70;99.90;;;;;;5066218;28;20032;-73
2021/03/01 09:13:41;;;;;;;17.55;7.57;;;5.60;99.90;;;;;;5063948;28;20120;-72
2021/03/01 09:16:13;;;;;;;20.50;7.88;;;5.60;99.90;;;;;;5062643;28;20070;-74
2021/03/01 09:18:41;;;;;;;19.85;7.40;;;5.80;99.90;;;;;;5059132;28;20456;-73
2021/03/01 09:21:08;;;;;;;26.30;7.65;;;5.70;99.90;;;;;;5048743;28;20500;-75
2021/03/01 09:23:42;;;;;;;18.17;7.15;;;5.70;99.90;;;;;;5057411;28;20041;-71
2021/03/01 09:26:17;;;;;;;23.80;5.95;;;5.70;99.90;;;;;;5051171;28;20116;-74
2021/03/01 09:28:43;;;;;;;12.23;4.80;;;5.60;99.90;;;;;;5066377;28;20109;-75
2021/03/01 09:31:11;;;;;;;6.38;4.45;;;5.70;99.90;;;;;;5061956;28;20569;-73
2021/03/01 09:33:39;;;;;;;11.35;5.03;;;5.80;99.90;;;;;;5064381;28;20037;-74
2021/03/01 09:36:06;;;;;;;11.43;4.90;;;6.30;99.90;;;;;;5063204;28;20048;-74
2021/03/01 09:38:32;;;;;;;21.63;5.50;;;6.00;99.90;;;;;;5082806;28;20048;-72
2021/03/01 09:41:03;;;;;;;11.45;5.32;;;6.00;99.90;;;;;;5065891;28;20051;-74
2021/03/01 09:43:29;;;;;;;12.98;5.43;;;6.10;99.90;;;;;;5054169;28;20071;-73
2021/03/01 09:45:58;;;;;;;10.38;5.75;;;6.10;99.90;;;;;;5058268;28;20051;-72
2021/03/01 09:48:25;;;;;;;14.18;5.70;;;6.20;99.90;;;;;;5058156;28;20036;-73
2021/03/01 09:50:51;;;;;;;10.32;5.25;;;6.10;99.90;;;;;;5053978;28;20033;-73
2021/03/01 09:53:18;;;;;;;8.45;4.93;;;6.10;99.90;;;;;;5080152;28;20048;-74
2021/03/01 09:55:45;;;;;;;6.80;4.15;;;6.20;99.90;;;;;;5065219;28;20044;-75
2021/03/01 09:58:27;;;;;;;11.88;4.28;;;6.20;99.90;;;;;;5063622;28;20119;-74
2021/03/01 10:01:14;;;;;;;7.82;3.75;;;6.30;99.90;;;;;;5064804;28;20535;-76
2021/03/01 10:03:44;;;;;;;10.48;4.57;;;6.40;99.90;;;;;;5060307;28;20041;-76
2021/03/01 10:06:14;;;;;;;8.93;4.43;;;6.40;99.90;;;;;;5057336;28;20037;-75
2021/03/01 10:08:41;;;;;;;7.00;3.78;;;6.40;99.90;;;;;;5063344;28;20162;-73
2021/03/01 10:11:25;;;;;;;8.20;4.05;;;6.40;99.90;;;;;;5066118;28;20474;-74
2021/03/01 10:14:00;;;;;;;7.93;3.75;;;6.40;99.90;;;;;;5052465;28;20060;-72
2021/03/01 10:16:31;;;;;;;13.43;4.20;;;6.40;99.90;;;;;;5060000;28;20259;-71
2021/03/01 10:19:12;;;;;;;10.68;4.15;;;6.50;99.90;;;;;;5072522;28;20544;-75
2021/03/01 10:21:39;;;;;;;7.18;3.80;;;6.50;99.90;;;;;;5063046;28;20385;-76
2021/03/01 10:24:07;;;;;;;7.47;3.53;;;6.80;99.90;;;;;;5065373;28;20048;-76
2021/03/01 10:26:47;;;;;;;6.28;2.88;;;6.60;99.90;;;;;;5064765;28;20092;-73
2021/03/01 10:29:14;;;;;;;4.97;2.75;;;6.60;99.90;;;;;;5055785;28;20150;-73
2021/03/01 10:31:40;;;;;;;11.18;3.35;;;6.70;99.90;;;;;;5044761;28;20516;-76
2021/03/01 10:34:13;;;;;;;7.35;3.00;;;6.70;99.90;;;;;;5058030;28;20052;-74
2021/03/01 10:36:48;;;;;;;7.65;3.30;;;6.70;99.90;;;;;;5064714;28;20037;-75
2021/03/01 10:39:16;;;;;;;6.20;3.60;;;6.70;99.90;;;;;;5061203;28;20047;-74
2021/03/01 10:41:48;;;;;;;8.45;3.40;;;6.60;99.90;;;;;;5054287;28;20044;-73
2021/03/01 10:44:14;;;;;;;9.15;3.63;;;6.70;99.90;;;;;;5060784;28;20044;-75
2021/03/01 10:46:45;;;;;;;12.10;4.53;;;6.70;99.90;;;;;;5068172;28;20141;-73
2021/03/01 10:49:18;;;;;;;5.43;3.67;;;6.80;99.90;;;;;;5052204;28;20045;-75
2021/03/01 10:51:45;;;;;;;8.30;3.50;;;6.70;99.90;;;;;;5056281;28;20036;-74
2021/03/01 10:54:11;;;;;;;7.32;2.92;;;6.70;99.90;;;;;;5064731;28;20067;-74
2021/03/01 10:56:37;;;;;;;4.63;2.88;;;6.80;99.90;;;;;;5055369;28;20071;-75
2021/03/01 10:59:04;;;;;;;4.40;2.85;;;6.80;99.90;;;;;;5063881;28;20509;-71
2021/03/01 11:01:33;;;;;;;3.88;2.70;;;6.90;99.90;;;;;;5056391;28;20053;-76
2021/03/01 11:03:59;;;;;;;6.72;3.15;;;7.00;99.90;;;;;;5073733;28;20040;-76
2021/03/01 11:06:25;;;;;;;4.05;2.83;;;7.00;99.90;;;;;;5058196;28;20099;-74
2021/03/01 11:08:51;;;;;;;5.80;3.40;;;7.40;99.90;;;;;;5055945;28;20120;-73
2021/03/01 11:11:17;;;;;;;4.45;2.60;;;7.40;99.90;;;;;;5058906;28;20116;-74
2021/03/01 11:13:42;;;;;;;4.88;2.80;;;7.20;99.90;;;;;;5061060;28;20090;-76
2021/03/01 11:16:08;;;;;;;5.25;2.88;;;7.30;99.90;;;;;;5079788;28;20177;-75
2021/03/01 11:18:34;;;;;;;4.40;3.00;;;7.40;99.90;;;;;;5074670;28;20089;-73
2021/03/01 11:21:00;;;;;;;5.22;3.20;;;7.50;99.90;;;;;;5047666;28;20043;-74
2021/03/01 11:23:26;;;;;;;;;;;8.00;99.90;;;;;;5075791;28;20501;-74
2021/03/01 11:25:52;;;;;;;6.15;3.33;;;8.10;99.90;;;;;;5061116;28;19993;-71
2021/03/01 11:28:18;;;;;;;4.30;2.78;;;7.80;99.90;;;;;;5059240;28;20033;-78
2021/03/01 11:30:45;;;;;;;6.00;3.67;;;8.10;99.90;;;;;;5053595;28;20144;-74
2021/03/01 11:33:10;;;;;;;5.35;3.47;;;8.40;99.90;;;;;;5045713;28;20108;-75
2021/03/01 11:35:37;;;;;;;7.07;2.97;;;8.50;99.90;;;;;;5062285;28;20037;-76
2021/03/01 11:38:03;;;;;;;5.95;3.28;;;8.60;99.90;;;;;;5060818;28;20051;-74
2021/03/01 11:40:32;;;;;;;6.10;3.47;;;8.70;99.90;;;;;;5060080;28;20238;-75
2021/03/01 11:42:58;;;;;;;4.18;2.95;;;8.80;99.90;;;;;;5070479;28;20555;-74
2021/03/01 11:45:24;;;;;;;5.28;3.20;;;8.70;99.90;;;;;;5067742;28;20040;-73
2021/03/01 11:47:49;;;;;;;5.18;2.95;;;8.70;99.90;;;;;;5066050;28;20470;-71
2021/03/01 11:50:18;;;;;;;7.28;3.83;;;8.50;99.90;;;;;;5063212;28;20145;-72
2021/03/01 11:52:45;;;;;;;7.00;3.70;;;8.30;99.90;;;;;;5062927;28;20041;-71
2021/03/01 11:55:12;;;;;;;5.28;3.58;;;8.30;99.90;;;;;;5062990;28;20044;-74
2021/03/01 11:57:39;;;;;;;6.55;3.63;;;8.30;99.90;;;;;;5065204;28;20063;-73
2021/03/01 12:00:06;;;;;;;6.47;3.70;;;8.20;99.90;;;;;;5068799;28;20036;-73
2021/03/01 12:02:32;;;;;;;5.65;3.72;;;8.20;99.90;;;;;;5067180;28;20044;-72
2021/03/01 12:04:59;;;;;;;8.25;4.95;;;8.10;99.90;;;;;;5064841;28;20062;-74
2021/03/01 12:07:27;;;;;;;6.60;4.05;;;8.20;99.90;;;;;;5067557;28;20070;-71
2021/03/01 12:09:54;;;;;;;5.80;3.80;;;8.30;99.90;;;;;;5060848;28;20252;-74
2021/03/01 12:12:19;;;;;;;;;;;8.50;99.90;;;;;;5067983;28;20037;-73
2021/03/01 12:14:45;;;;;;;4.75;3.22;;;8.70;99.90;;;;;;5064986;28;19944;-73
2021/03/01 12:17:11;;;;;;;5.43;3.22;;;8.80;99.90;;;;;;5067078;28;20056;-75
2021/03/01 12:19:41;;;;;;;4.57;3.28;;;9.00;99.90;;;;;;5067656;28;20033;-75
2021/03/01 12:22:08;;;;;;;6.20;4.30;;;8.80;99.90;;;;;;5067800;28;20041;-76
2021/03/01 12:24:34;;;;;;;5.97;4.00;;;8.80;99.90;;;;;;5065452;28;20040;-75
2021/03/01 12:27:00;;;;;;;6.07;4.10;;;8.90;99.90;;;;;;5054371;28;20033;-77
2021/03/01 12:29:26;;;;;;;6.07;3.80;;;8.90;99.90;;;;;;5078319;28;20132;-74
2021/03/01 12:31:52;;;;;;;5.90;4.03;;;8.80;99.90;;;;;;5065866;28;20041;-71
2021/03/01 12:34:18;;;;;;;5.80;3.50;;;8.60;99.90;;;;;;5063578;28;20070;-74
2021/03/01 12:36:44;;;;;;;5.93;3.72;;;8.40;99.90;;;;;;5057383;28;20072;-74
2021/03/01 12:39:10;;;;;;;;;;;8.40;99.90;;;;;;5067959;28;20044;-75
2021/03/01 12:41:37;;;;;;;5.97;3.88;;;8.40;99.90;;;;;;5067668;28;19931;-75
2021/03/01 12:44:03;;;;;;;6.88;4.13;;;8.30;99.90;;;;;;5064658;28;20044;-73
2021/03/01 12:46:29;;;;;;;5.90;3.55;;;8.30;99.90;;;;;;5065790;28;20488;-75
2021/03/01 12:48:55;;;;;;;6.22;4.18;;;8.20;99.90;;;;;;5054874;28;20045;-74
2021/03/01 12:51:20;;;;;;;5.63;3.78;;;8.10;99.90;;;;;;5048307;28;20437;-74
2021/03/01 12:53:47;;;;;;;7.05;3.80;;;8.00;99.90;;;;;;5061918;28;20090;-74